Peralta, New Mexico
Current Conditions -  °F | °C
As of 11:52 AM on Thursday 30 Oct 2014 (Local Time) from KABQ Reporting Station
Clear Clear  
Wind Chill: 62°   Ceiling: Unl
Heat Index: 62°   Visibility: 10mi
Dew Point: 16°   Wind: 12mph
Humidity: 17%   Direction: 360°N
Pressure: 30.35"   Gusts: NA
Location:  34.84°N, 106.69°W
Report Text: KABQ 301752Z 36010KT 10SM CLR 17/M09 A3035 RMK AO2 SLP222 T01671089 10167 20078 58001
Loading
Personal Weather Stations






























Interactive Weather Map
Tropical Storm Tracking
New forecast layout! Learn more

10-Day Weather Forecast

Advertisements
Track Severe Weather on mobile